createdAt,value
2018-07-26T00:00:20.303Z,0
2018-07-26T00:01:20.008Z,0
2018-07-26T00:02:19.733Z,0
2018-07-26T00:03:19.993Z,0
2018-07-26T00:04:19.975Z,0
2018-07-26T00:05:19.967Z,0
2018-07-26T00:06:19.974Z,0
2018-07-26T00:07:20.213Z,0
2018-07-26T00:08:19.943Z,0
2018-07-26T00:09:19.951Z,0
2018-07-26T00:10:19.400Z,0
2018-07-26T00:11:19.920Z,0
2018-07-26T00:12:20.117Z,0
2018-07-26T00:13:19.912Z,0
2018-07-26T00:14:20.162Z,0
2018-07-26T00:15:19.623Z,0
2018-07-26T00:16:19.884Z,0
2018-07-26T00:17:19.347Z,0
2018-07-26T00:18:19.600Z,0
2018-07-26T00:19:19.593Z,0
2018-07-26T00:20:19.852Z,0
2018-07-26T00:21:19.589Z,0
2018-07-26T00:22:19.839Z,0
2018-07-26T00:23:19.834Z,0
2018-07-26T00:24:19.557Z,0
2018-07-26T00:25:20.071Z,0
2018-07-26T00:26:19.537Z,0
2018-07-26T00:27:19.528Z,0
2018-07-26T00:28:19.789Z,0
2018-07-26T00:29:19.785Z,0
2018-07-26T00:30:20.041Z,0
2018-07-26T00:31:19.768Z,0
2018-07-26T00:32:19.772Z,0
2018-07-26T00:33:19.752Z,0
2018-07-26T00:34:20.008Z,0
2018-07-26T00:35:20.000Z,0
2018-07-26T00:36:19.197Z,0
2018-07-26T00:37:19.718Z,0
2018-07-26T00:38:19.710Z,0
2018-07-26T00:39:19.713Z,0
2018-07-26T00:40:19.433Z,0
2018-07-26T00:41:20.149Z,0
2018-07-26T00:42:19.675Z,0
2018-07-26T00:43:19.412Z,0
2018-07-26T00:44:19.667Z,0
2018-07-26T00:45:19.678Z,0
2018-07-26T00:46:19.633Z,0
2018-07-26T00:47:19.892Z,0
2018-07-26T00:48:19.627Z,0
2018-07-26T00:49:19.898Z,0
2018-07-26T00:50:19.614Z,0
2018-07-26T00:51:19.347Z,0
2018-07-26T00:52:19.332Z,0
2018-07-26T00:53:19.575Z,0
2018-07-26T00:54:19.838Z,0
2018-07-26T00:55:19.591Z,0
2018-07-26T00:56:19.296Z,0
2018-07-26T00:57:19.550Z,0
2018-07-26T00:58:19.816Z,0
2018-07-26T00:59:19.287Z,0
2018-07-26T01:00:19.522Z,0
2018-07-26T01:01:19.790Z,0
2018-07-26T01:02:19.246Z,0
2018-07-26T01:03:19.768Z,0
2018-07-26T01:04:19.488Z,0
2018-07-26T01:05:19.216Z,0
2018-07-26T01:06:19.472Z,0
2018-07-26T01:07:18.943Z,0
2018-07-26T01:08:18.931Z,0
2018-07-26T01:09:19.187Z,0
2018-07-26T01:10:19.704Z,0
2018-07-26T01:11:19.438Z,0
2018-07-26T01:12:19.691Z,0
2018-07-26T01:13:19.417Z,0
2018-07-26T01:14:19.673Z,0
2018-07-26T01:15:18.868Z,0
2018-07-26T01:16:19.653Z,0
2018-07-26T01:17:19.388Z,0
2018-07-26T01:18:19.103Z,0
2018-07-26T01:19:19.364Z,0
2018-07-26T01:20:19.359Z,0
2018-07-26T01:21:19.339Z,0
2018-07-26T01:22:19.331Z,0
2018-07-26T01:23:18.802Z,0
2018-07-26T01:24:19.321Z,0
2018-07-26T01:25:19.051Z,0
2018-07-26T01:26:19.299Z,0
2018-07-26T01:27:18.769Z,0
2018-07-26T01:28:19.287Z,0
2018-07-26T01:29:18.757Z,0
2018-07-26T01:30:19.539Z,0
2018-07-26T01:31:19.257Z,0
2018-07-26T01:32:19.055Z,0
2018-07-26T01:33:19.240Z,0
2018-07-26T01:34:18.967Z,0
2018-07-26T01:35:19.493Z,0
2018-07-26T01:36:19.228Z,0
2018-07-26T01:37:19.207Z,0
2018-07-26T01:38:19.216Z,0
2018-07-26T01:39:19.192Z,0
2018-07-26T01:40:19.194Z,0
2018-07-26T01:41:19.179Z,0
2018-07-26T01:42:19.451Z,0
2018-07-26T01:43:19.165Z,0
2018-07-26T01:44:19.159Z,0
2018-07-26T01:45:19.141Z,0
2018-07-26T01:46:19.396Z,0
2018-07-26T01:47:18.862Z,0
2018-07-26T01:48:18.860Z,0
2018-07-26T01:49:19.110Z,0
2018-07-26T01:50:18.836Z,0
2018-07-26T01:51:18.825Z,0
2018-07-26T01:52:19.082Z,0
2018-07-26T01:53:19.077Z,0
2018-07-26T01:54:18.541Z,0
2018-07-26T01:55:19.321Z,0
2018-07-26T01:56:19.057Z,0
2018-07-26T01:57:18.780Z,0
2018-07-26T01:58:19.032Z,0
2018-07-26T01:59:18.756Z,0
2018-07-26T02:00:19.020Z,0
2018-07-26T02:01:19.008Z,0
2018-07-26T02:02:18.997Z,0
2018-07-26T02:03:19.254Z,0
2018-07-26T02:04:18.452Z,0
2018-07-26T02:05:19.239Z,0
2018-07-26T02:06:18.698Z,0
2018-07-26T02:07:18.688Z,0
2018-07-26T02:08:18.943Z,0
2018-07-26T02:09:18.944Z,0
2018-07-26T02:10:18.402Z,0
2018-07-26T02:11:18.916Z,0
2018-07-26T02:12:18.645Z,0
2018-07-26T02:13:18.847Z,0
2018-07-26T02:14:18.898Z,0
2018-07-26T02:15:19.152Z,0
2018-07-26T02:16:19.137Z,0
2018-07-26T02:17:18.866Z,0
2018-07-26T02:18:19.135Z,0
2018-07-26T02:19:18.847Z,0
2018-07-26T02:20:18.844Z,0
2018-07-26T02:21:18.835Z,0
2018-07-26T02:22:19.090Z,0
2018-07-26T02:23:18.819Z,0
2018-07-26T02:24:18.823Z,0
2018-07-26T02:25:18.540Z,0
2018-07-26T02:26:18.788Z,0
2018-07-26T02:27:18.522Z,0
2018-07-26T02:28:18.772Z,0
2018-07-26T02:29:18.505Z,0
2018-07-26T02:30:18.493Z,0
2018-07-26T02:31:19.135Z,0
2018-07-26T02:32:18.998Z,0
2018-07-26T02:33:18.202Z,0
2018-07-26T02:34:18.455Z,0
2018-07-26T02:35:18.711Z,0
2018-07-26T02:36:18.714Z,0
2018-07-26T02:37:18.969Z,0
2018-07-26T02:38:18.439Z,0
2018-07-26T02:39:18.752Z,0
2018-07-26T02:40:18.410Z,0
2018-07-26T02:41:18.659Z,0
2018-07-26T02:42:18.390Z,0
2018-07-26T02:43:18.643Z,0
2018-07-26T02:44:18.892Z,0
2018-07-26T02:45:18.358Z,0
2018-07-26T02:46:18.364Z,0
2018-07-26T02:47:18.866Z,0
2018-07-26T02:48:18.894Z,0
2018-07-26T02:49:18.590Z,0
2018-07-26T02:50:18.573Z,0
2018-07-26T02:51:18.578Z,0
2018-07-26T02:52:18.565Z,0
2018-07-26T02:53:18.561Z,0
2018-07-26T02:54:18.540Z,0
2018-07-26T02:55:18.544Z,0
2018-07-26T02:56:18.521Z,0
2018-07-26T02:57:18.515Z,0
2018-07-26T02:58:18.517Z,0
2018-07-26T02:59:18.233Z,0
2018-07-26T03:00:17.961Z,0
2018-07-26T03:01:18.757Z,0
2018-07-26T03:02:18.207Z,0
2018-07-26T03:03:18.197Z,0
2018-07-26T03:04:17.926Z,0
2018-07-26T03:05:17.919Z,0
2018-07-26T03:06:18.704Z,0
2018-07-26T03:07:19.142Z,0
2018-07-26T03:08:18.149Z,0
2018-07-26T03:09:18.154Z,4
2018-07-26T03:10:18.658Z,4
2018-07-26T03:11:18.139Z,0
2018-07-26T03:12:18.652Z,4
2018-07-26T03:13:18.377Z,4
2018-07-26T03:14:18.643Z,4
2018-07-26T03:15:18.357Z,4
2018-07-26T03:16:18.342Z,4
2018-07-26T03:17:18.333Z,4
2018-07-26T03:18:18.327Z,8
2018-07-26T03:19:18.321Z,8
2018-07-26T03:20:18.342Z,8
2018-07-26T03:21:18.557Z,12
2018-07-26T03:22:18.289Z,12
2018-07-26T03:23:18.290Z,12
2018-07-26T03:24:18.298Z,16
2018-07-26T03:25:18.541Z,16
2018-07-26T03:26:18.515Z,20
2018-07-26T03:27:17.715Z,24
2018-07-26T03:28:18.238Z,24
2018-07-26T03:29:18.493Z,24
2018-07-26T03:30:18.495Z,32
2018-07-26T03:31:17.943Z,36
2018-07-26T03:32:17.940Z,40
2018-07-26T03:33:17.925Z,44
2018-07-26T03:34:18.184Z,48
2018-07-26T03:35:18.167Z,52
2018-07-26T03:36:18.419Z,60
2018-07-26T03:37:18.188Z,64
2018-07-26T03:38:18.411Z,72
2018-07-26T03:39:18.396Z,76
2018-07-26T03:40:18.114Z,84
2018-07-26T03:41:17.845Z,92
2018-07-26T03:42:18.376Z,100
2018-07-26T03:43:18.103Z,108
2018-07-26T03:44:17.821Z,116
2018-07-26T03:45:18.083Z,128
2018-07-26T03:46:18.071Z,136
2018-07-26T03:47:18.317Z,144
2018-07-26T03:48:18.046Z,156
2018-07-26T03:49:18.074Z,164
2018-07-26T03:50:17.764Z,176
2018-07-26T03:51:18.228Z,188
2018-07-26T03:52:18.300Z,200
2018-07-26T03:53:18.001Z,212
2018-07-26T03:54:17.737Z,224
2018-07-26T03:55:17.983Z,240
2018-07-26T03:56:17.705Z,252
2018-07-26T03:57:17.969Z,264
2018-07-26T03:58:17.969Z,276
2018-07-26T03:59:17.947Z,292
2018-07-26T04:00:18.204Z,308
2018-07-26T04:01:17.660Z,320
2018-07-26T04:02:17.665Z,332
2018-07-26T04:03:17.674Z,348
2018-07-26T04:04:17.638Z,356
2018-07-26T04:05:17.617Z,368
2018-07-26T04:06:17.623Z,384
2018-07-26T04:07:17.875Z,396
2018-07-26T04:08:17.866Z,420
2018-07-26T04:09:18.121Z,436
2018-07-26T04:10:17.584Z,456
2018-07-26T04:11:17.569Z,472
2018-07-26T04:12:17.548Z,492
2018-07-26T04:13:17.750Z,508
2018-07-26T04:14:17.279Z,524
2018-07-26T04:15:17.798Z,540
2018-07-26T04:16:17.261Z,560
2018-07-26T04:17:17.254Z,572
2018-07-26T04:18:17.506Z,596
2018-07-26T04:19:17.765Z,616
2018-07-26T04:20:18.070Z,640
2018-07-26T04:21:17.475Z,660
2018-07-26T04:22:17.462Z,684
2018-07-26T04:23:17.992Z,704
2018-07-26T04:24:17.982Z,720
2018-07-26T04:25:17.191Z,736
2018-07-26T04:26:17.808Z,748
2018-07-26T04:27:17.996Z,760
2018-07-26T04:28:17.413Z,780
2018-07-26T04:29:17.950Z,796
2018-07-26T04:30:17.934Z,812
2018-07-26T04:31:17.655Z,824
2018-07-26T04:32:17.252Z,836
2018-07-26T04:33:17.110Z,844
2018-07-26T04:34:17.893Z,856
2018-07-26T04:35:17.098Z,864
2018-07-26T04:36:17.340Z,872
2018-07-26T04:37:17.329Z,884
2018-07-26T04:38:17.587Z,892
2018-07-26T04:39:17.589Z,900
2018-07-26T04:40:17.568Z,920
2018-07-26T04:41:17.326Z,936
2018-07-26T04:42:17.547Z,948
2018-07-26T04:43:17.538Z,960
2018-07-26T04:44:17.525Z,980
2018-07-26T04:45:17.521Z,996
2018-07-26T04:46:16.988Z,1008
2018-07-26T04:47:16.982Z,1024
2018-07-26T04:48:17.499Z,1040
2018-07-26T04:49:17.484Z,1060
2018-07-26T04:50:17.476Z,1076
2018-07-26T04:51:17.199Z,1100
2018-07-26T04:52:17.451Z,1116
2018-07-26T04:53:17.452Z,1136
2018-07-26T04:54:17.430Z,1156
2018-07-26T04:55:17.181Z,1176
2018-07-26T04:56:16.897Z,1200
2018-07-26T04:57:17.417Z,1224
2018-07-26T04:58:17.395Z,1248
2018-07-26T04:59:17.397Z,1272
2018-07-26T05:00:17.400Z,1296
2018-07-26T05:01:17.377Z,1312
2018-07-26T05:02:17.106Z,1332
2018-07-26T05:03:16.827Z,1348
2018-07-26T05:04:17.091Z,1368
2018-07-26T05:05:17.085Z,1388
2018-07-26T05:06:16.800Z,1408
2018-07-26T05:07:16.786Z,1432
2018-07-26T05:08:17.825Z,1452
2018-07-26T05:09:17.589Z,1472
2018-07-26T05:10:17.289Z,1492
2018-07-26T05:11:17.315Z,1512
2018-07-26T05:12:17.012Z,1528
2018-07-26T05:13:17.538Z,1548
2018-07-26T05:14:16.987Z,1564
2018-07-26T05:15:17.265Z,1580
2018-07-26T05:16:17.235Z,1596
2018-07-26T05:17:17.511Z,1608
2018-07-26T05:18:17.532Z,1624
2018-07-26T05:19:17.129Z,1640
2018-07-26T05:20:17.201Z,1656
2018-07-26T05:21:17.220Z,1672
2018-07-26T05:22:16.919Z,1680
2018-07-26T05:23:16.922Z,1696
2018-07-26T05:24:17.162Z,1712
2018-07-26T05:25:17.187Z,1724
2018-07-26T05:26:17.159Z,1740
2018-07-26T05:27:16.614Z,1752
2018-07-26T05:28:17.136Z,1764
2018-07-26T05:29:17.129Z,1780
2018-07-26T05:30:17.116Z,1792
2018-07-26T05:31:17.374Z,1804
2018-07-26T05:32:16.832Z,1820
2018-07-26T05:33:16.824Z,1836
2018-07-26T05:34:17.342Z,1848
2018-07-26T05:35:16.819Z,1868
2018-07-26T05:36:16.796Z,1880
2018-07-26T05:37:17.051Z,1896
2018-07-26T05:38:17.306Z,1908
2018-07-26T05:39:17.308Z,1928
2018-07-26T05:40:17.031Z,1944
2018-07-26T05:41:16.761Z,1960
2018-07-26T05:42:16.747Z,1980
2018-07-26T05:43:16.827Z,2000
2018-07-26T05:44:16.770Z,2012
2018-07-26T05:45:17.248Z,2028
2018-07-26T05:46:16.981Z,2048
2018-07-26T05:47:17.237Z,2064
2018-07-26T05:48:16.695Z,2080
2018-07-26T05:49:17.217Z,2092
2018-07-26T05:50:17.215Z,2104
2018-07-26T05:51:16.675Z,2112
2018-07-26T05:52:16.405Z,2120
2018-07-26T05:53:17.033Z,2128
2018-07-26T05:54:16.906Z,2136
2018-07-26T05:55:16.901Z,2140
2018-07-26T05:56:16.623Z,2144
2018-07-26T05:57:16.899Z,2148
2018-07-26T05:58:17.147Z,2152
2018-07-26T05:59:16.610Z,2144
2018-07-26T06:00:17.111Z,2152
2018-07-26T06:01:17.120Z,2176
2018-07-26T06:02:17.109Z,2204
2018-07-26T06:03:16.582Z,2232
2018-07-26T06:04:16.575Z,2260
2018-07-26T06:05:16.561Z,2292
2018-07-26T06:06:16.815Z,2312
2018-07-26T06:07:16.536Z,2324
2018-07-26T06:08:17.064Z,2320
2018-07-26T06:09:17.058Z,2332
2018-07-26T06:10:17.047Z,2360
2018-07-26T06:11:16.790Z,2392
2018-07-26T06:12:16.513Z,2408
2018-07-26T06:13:16.749Z,2420
2018-07-26T06:14:16.752Z,2420
2018-07-26T06:15:16.472Z,2440
2018-07-26T06:16:16.471Z,2480
2018-07-26T06:17:16.651Z,2560
2018-07-26T06:18:16.524Z,2704
2018-07-26T06:19:16.447Z,2736
2018-07-26T06:20:16.991Z,2800
2018-07-26T06:21:16.967Z,2888
2018-07-26T06:22:16.433Z,2992
2018-07-26T06:23:16.679Z,3068
2018-07-26T06:24:16.678Z,3096
2018-07-26T06:25:16.944Z,3120
2018-07-26T06:26:16.662Z,3176
2018-07-26T06:27:16.657Z,3164
2018-07-26T06:28:17.211Z,3240
2018-07-26T06:29:16.100Z,3228
2018-07-26T06:30:16.939Z,3172
2018-07-26T06:31:16.088Z,3108
2018-07-26T06:32:16.078Z,3044
2018-07-26T06:33:16.610Z,3032
2018-07-26T06:34:16.603Z,3060
2018-07-26T06:35:16.586Z,3124
2018-07-26T06:36:16.325Z,3200
2018-07-26T06:37:16.573Z,3284
2018-07-26T06:38:16.300Z,3388
2018-07-26T06:39:16.038Z,3512
2018-07-26T06:40:16.553Z,3648
2018-07-26T06:41:16.277Z,3732
2018-07-26T06:42:16.010Z,3764
2018-07-26T06:43:16.527Z,3732
2018-07-26T06:44:16.250Z,3708
2018-07-26T06:45:16.772Z,3844
2018-07-26T06:46:16.242Z,3976
2018-07-26T06:47:16.615Z,4116
2018-07-26T06:48:16.233Z,4188
2018-07-26T06:49:16.488Z,4064
2018-07-26T06:50:16.218Z,3984
2018-07-26T06:51:16.730Z,3976
2018-07-26T06:52:16.202Z,4028
2018-07-26T06:53:16.967Z,4012
2018-07-26T06:54:16.728Z,3976
2018-07-26T06:55:16.447Z,3896
2018-07-26T06:56:16.434Z,3832
2018-07-26T06:57:16.165Z,3744
2018-07-26T06:58:16.426Z,3708
2018-07-26T06:59:16.680Z,3696
2018-07-26T07:00:15.881Z,3632
2018-07-26T07:01:16.396Z,3600
2018-07-26T07:02:16.123Z,3644
2018-07-26T07:03:16.649Z,3764
2018-07-26T07:04:15.858Z,3916
2018-07-26T07:05:16.375Z,4000
2018-07-26T07:06:16.105Z,3932
2018-07-26T07:07:16.623Z,3780
2018-07-26T07:08:16.360Z,3620
2018-07-26T07:09:16.344Z,3480
2018-07-26T07:10:16.484Z,3432
2018-07-26T07:11:16.340Z,3408
2018-07-26T07:12:16.602Z,3408
2018-07-26T07:13:16.319Z,3420
2018-07-26T07:14:16.581Z,3416
2018-07-26T07:15:16.319Z,3420
2018-07-26T07:16:16.298Z,3428
2018-07-26T07:17:16.300Z,3440
2018-07-26T07:18:15.767Z,3452
2018-07-26T07:19:16.024Z,3464
2018-07-26T07:20:16.271Z,3472
2018-07-26T07:21:15.738Z,3480
2018-07-26T07:22:16.261Z,3488
2018-07-26T07:23:16.514Z,3500
2018-07-26T07:24:16.521Z,3524
2018-07-26T07:25:15.977Z,3548
2018-07-26T07:26:16.597Z,3568
2018-07-26T07:27:16.489Z,3588
2018-07-26T07:28:15.965Z,3624
2018-07-26T07:29:16.520Z,3660
2018-07-26T07:30:16.479Z,3688
2018-07-26T07:31:15.939Z,3728
2018-07-26T07:32:16.199Z,3780
2018-07-26T07:33:15.725Z,3832
2018-07-26T07:34:16.450Z,3900
2018-07-26T07:35:16.180Z,7576
2018-07-26T07:36:16.178Z,18464
2018-07-26T07:37:16.168Z,24416
2018-07-26T07:38:16.209Z,28352
2018-07-26T07:39:16.422Z,31744
2018-07-26T07:40:15.905Z,32352
2018-07-26T07:41:16.151Z,31744
2018-07-26T07:42:15.890Z,31584
2018-07-26T07:43:16.135Z,31072
2018-07-26T07:44:15.613Z,29792
2018-07-26T07:45:15.607Z,30720
2018-07-26T07:46:15.869Z,32992
2018-07-26T07:47:15.647Z,33856
2018-07-26T07:48:16.122Z,32064
2018-07-26T07:49:15.859Z,30624
2018-07-26T07:50:16.110Z,31520
2018-07-26T07:51:16.112Z,33184
2018-07-26T07:52:16.109Z,34464
2018-07-26T07:53:16.120Z,35744
2018-07-26T07:54:16.101Z,37344
2018-07-26T07:55:16.371Z,37408
2018-07-26T07:56:16.106Z,33792
2018-07-26T07:57:16.104Z,29504
2018-07-26T07:58:15.837Z,28800
2018-07-26T07:59:15.843Z,31680
2018-07-26T08:00:16.105Z,35488
2018-07-26T08:01:15.838Z,38976
2018-07-26T08:02:16.374Z,42016
2018-07-26T08:03:15.848Z,42880
2018-07-26T08:04:15.841Z,42080
2018-07-26T08:05:15.903Z,39520
2018-07-26T08:06:16.373Z,37632
2018-07-26T08:07:16.369Z,38976
2018-07-26T08:08:15.838Z,41664
2018-07-26T08:09:16.382Z,42592
2018-07-26T08:10:15.849Z,42816
2018-07-26T08:11:16.353Z,44256
2018-07-26T08:12:16.112Z,46080
2018-07-26T08:13:16.322Z,46560
2018-07-26T08:14:16.115Z,44736
2018-07-26T08:15:16.123Z,43008
2018-07-26T08:16:16.131Z,42528
2018-07-26T08:17:15.870Z,43200
2018-07-26T08:18:15.863Z,44032
2018-07-26T08:19:15.862Z,44032
2018-07-26T08:20:16.139Z,45792
2018-07-26T08:21:16.161Z,48128
2018-07-26T08:22:15.882Z,48736
2018-07-26T08:23:15.885Z,47072
2018-07-26T08:24:16.157Z,43808
2018-07-26T08:25:15.884Z,40672
2018-07-26T08:26:16.419Z,38048
2018-07-26T08:27:16.424Z,36672
2018-07-26T08:28:16.160Z,37600
2018-07-26T08:29:16.171Z,42976
2018-07-26T08:30:15.911Z,49216
2018-07-26T08:31:16.181Z,52192
2018-07-26T08:32:15.654Z,49536
2018-07-26T08:33:15.918Z,44800
2018-07-26T08:34:16.196Z,40800
2018-07-26T08:35:16.011Z,38688
2018-07-26T08:36:16.487Z,38176
2018-07-26T08:37:16.257Z,40224
2018-07-26T08:38:16.470Z,43488
2018-07-26T08:39:15.947Z,45856
2018-07-26T08:40:16.217Z,45696
2018-07-26T08:41:16.381Z,31488
2018-07-26T08:42:16.229Z,22208
2018-07-26T08:43:16.234Z,33056
2018-07-26T08:44:16.249Z,18016
2018-07-26T08:45:16.509Z,4572
2018-07-26T08:46:16.239Z,5300
2018-07-26T08:47:16.253Z,6000
2018-07-26T08:48:16.462Z,8124
2018-07-26T08:49:16.269Z,7028
2018-07-26T08:50:16.254Z,4988
2018-07-26T08:51:16.014Z,4400
2018-07-26T08:52:15.802Z,4436
2018-07-26T08:53:16.266Z,4356
2018-07-26T08:54:16.162Z,4360
2018-07-26T08:55:16.008Z,5072
2018-07-26T08:56:16.016Z,4892
2018-07-26T08:57:16.016Z,4904
2018-07-26T08:58:16.031Z,4448
2018-07-26T08:59:16.292Z,9084
2018-07-26T09:00:16.289Z,17336
2018-07-26T09:01:16.444Z,24000
2018-07-26T09:02:16.030Z,22816
2018-07-26T09:03:16.293Z,16596
2018-07-26T09:04:16.297Z,7668
2018-07-26T09:05:16.021Z,9076
2018-07-26T09:06:16.292Z,17888
2018-07-26T09:07:16.027Z,19200
2018-07-26T09:08:16.031Z,30112
2018-07-26T09:09:16.593Z,27968
2018-07-26T09:10:16.569Z,20096
2018-07-26T09:11:16.043Z,9852
2018-07-26T09:12:16.296Z,7072
2018-07-26T09:13:16.302Z,5828
2018-07-26T09:14:16.300Z,6316
2018-07-26T09:15:16.301Z,12480
2018-07-26T09:16:16.311Z,7312
2018-07-26T09:17:15.811Z,5952
2018-07-26T09:18:16.575Z,6492
2018-07-26T09:19:16.306Z,6352
2018-07-26T09:20:16.304Z,8368
2018-07-26T09:21:16.314Z,9476
2018-07-26T09:22:16.298Z,12660
2018-07-26T09:23:16.036Z,17216
2018-07-26T09:24:16.563Z,20480
2018-07-26T09:25:16.304Z,16896
2018-07-26T09:26:16.170Z,13096
2018-07-26T09:27:15.776Z,9872
2018-07-26T09:28:16.026Z,16868
2018-07-26T09:29:16.043Z,21472
2018-07-26T09:30:16.583Z,6120
2018-07-26T09:31:16.309Z,8216
2018-07-26T09:32:15.769Z,14684
2018-07-26T09:33:16.144Z,4536
2018-07-26T09:34:15.769Z,11240
2018-07-26T09:35:16.332Z,8856
2018-07-26T09:36:16.031Z,8848
2018-07-26T09:37:16.300Z,6248
2018-07-26T09:38:16.562Z,6180
2018-07-26T09:39:16.032Z,5316
2018-07-26T09:40:16.566Z,7212
2018-07-26T09:41:15.838Z,14464
2018-07-26T09:42:16.027Z,15004
2018-07-26T09:43:16.559Z,6452
2018-07-26T09:44:16.025Z,7076
2018-07-26T09:45:16.293Z,7224
2018-07-26T09:46:16.291Z,13044
2018-07-26T09:47:16.382Z,27584
2018-07-26T09:48:16.022Z,24608
2018-07-26T09:49:16.297Z,11640
2018-07-26T09:50:16.289Z,8472
2018-07-26T09:51:16.021Z,7372
2018-07-26T09:52:16.570Z,5232
2018-07-26T09:53:15.757Z,6632
2018-07-26T09:54:15.756Z,6192
2018-07-26T09:55:16.012Z,4972
2018-07-26T09:56:16.022Z,5468
2018-07-26T09:57:16.009Z,8556
2018-07-26T09:58:15.746Z,5784
2018-07-26T09:59:16.537Z,6408
2018-07-26T10:00:16.093Z,6500
2018-07-26T10:01:16.005Z,5072
2018-07-26T10:02:16.270Z,13568
2018-07-26T10:03:16.060Z,29472
2018-07-26T10:04:16.270Z,13280
2018-07-26T10:05:16.525Z,7996
2018-07-26T10:06:16.271Z,14864
2018-07-26T10:07:16.005Z,12464
2018-07-26T10:08:16.003Z,9412
2018-07-26T10:09:16.274Z,5440
2018-07-26T10:10:16.265Z,5332
2018-07-26T10:11:16.256Z,5420
2018-07-26T10:12:16.260Z,5480
2018-07-26T10:13:16.455Z,6036
2018-07-26T10:14:16.258Z,4400
2018-07-26T10:15:15.727Z,5376
2018-07-26T10:16:16.256Z,5796
2018-07-26T10:17:15.725Z,5832
2018-07-26T10:18:15.993Z,5844
2018-07-26T10:19:16.522Z,5856
2018-07-26T10:20:16.607Z,15308
2018-07-26T10:21:16.250Z,13740
2018-07-26T10:22:15.979Z,19040
2018-07-26T10:23:16.240Z,8648
2018-07-26T10:24:15.980Z,11748
2018-07-26T10:25:16.241Z,11064
2018-07-26T10:26:15.976Z,11104
2018-07-26T10:27:16.239Z,19072
2018-07-26T10:28:16.237Z,11512
2018-07-26T10:29:15.974Z,11712
2018-07-26T10:30:15.979Z,43008
2018-07-26T10:31:16.496Z,60320
2018-07-26T10:32:16.499Z,81152
2018-07-26T10:33:16.241Z,84352
2018-07-26T10:34:16.251Z,87744
2018-07-26T10:35:15.971Z,85216
2018-07-26T10:36:16.552Z,82080
2018-07-26T10:37:16.240Z,68288
2018-07-26T10:38:16.239Z,74656
2018-07-26T10:39:16.494Z,73696
2018-07-26T10:40:15.976Z,75104
2018-07-26T10:41:15.979Z,80064
2018-07-26T10:42:15.984Z,87328
2018-07-26T10:43:16.249Z,93568
2018-07-26T10:44:16.521Z,97664
2018-07-26T10:45:15.994Z,98944
2018-07-26T10:46:16.267Z,98592
2018-07-26T10:47:15.743Z,95296
2018-07-26T10:48:16.536Z,89824
2018-07-26T10:49:16.546Z,84992
2018-07-26T10:50:16.308Z,79424
2018-07-26T10:51:16.030Z,74528
2018-07-26T10:52:16.027Z,74432
2018-07-26T10:53:16.572Z,79360
2018-07-26T10:54:16.303Z,85472
2018-07-26T10:55:16.054Z,94912
2018-07-26T10:56:16.584Z,103584
2018-07-26T10:57:16.332Z,109120
2018-07-26T10:58:16.327Z,110400
2018-07-26T10:59:15.816Z,107104
2018-07-26T11:00:16.111Z,99008
2018-07-26T11:01:16.357Z,88576
2018-07-26T11:02:16.626Z,80064
2018-07-26T11:03:16.370Z,74816
2018-07-26T11:04:15.861Z,73088
2018-07-26T11:05:16.127Z,77024
2018-07-26T11:06:16.400Z,81088
2018-07-26T11:07:16.179Z,84512
2018-07-26T11:08:16.410Z,87360
2018-07-26T11:09:16.422Z,88064
2018-07-26T11:10:16.189Z,84960
2018-07-26T11:11:16.175Z,79264
2018-07-26T11:12:16.180Z,73568
2018-07-26T11:13:16.462Z,68544
2018-07-26T11:14:16.210Z,65888
2018-07-26T11:15:16.287Z,68960
2018-07-26T11:16:15.958Z,74464
2018-07-26T11:17:16.766Z,80256
2018-07-26T11:18:16.239Z,85440
2018-07-26T11:19:16.257Z,88992
2018-07-26T11:20:16.517Z,92224
2018-07-26T11:21:16.823Z,93408
2018-07-26T11:22:16.544Z,91392
2018-07-26T11:23:16.547Z,89056
2018-07-26T11:24:16.376Z,87008
2018-07-26T11:25:16.833Z,85024
2018-07-26T11:26:16.057Z,83520
2018-07-26T11:27:16.675Z,83392
2018-07-26T11:28:16.863Z,82784
2018-07-26T11:29:16.887Z,83424
2018-07-26T11:30:16.358Z,83552
2018-07-26T11:31:16.627Z,82912
2018-07-26T11:32:16.702Z,83136
2018-07-26T11:33:16.395Z,81824
2018-07-26T11:34:16.663Z,80032
2018-07-26T11:35:16.408Z,80192
2018-07-26T11:36:16.419Z,78976
2018-07-26T11:37:16.170Z,80512
2018-07-26T11:38:16.443Z,80480
2018-07-26T11:39:16.194Z,82208
2018-07-26T11:40:16.459Z,83872
2018-07-26T11:41:16.744Z,85216
2018-07-26T11:42:16.761Z,87584
2018-07-26T11:43:16.758Z,87680
2018-07-26T11:44:17.036Z,86848
2018-07-26T11:45:16.788Z,83808
2018-07-26T11:46:16.789Z,83424
2018-07-26T11:47:16.800Z,82208
2018-07-26T11:48:16.815Z,82336
2018-07-26T11:49:16.815Z,84544
2018-07-26T11:50:17.427Z,85536
2018-07-26T11:51:16.853Z,86720
2018-07-26T11:52:16.325Z,86272
2018-07-26T11:53:17.144Z,83968
2018-07-26T11:54:16.354Z,83040
2018-07-26T11:55:16.628Z,82496
2018-07-26T11:56:16.900Z,82432
2018-07-26T11:57:16.913Z,84608
2018-07-26T11:58:16.664Z,86208
2018-07-26T11:59:16.671Z,88800
2018-07-26T12:00:16.957Z,90240
2018-07-26T12:01:16.755Z,91296
2018-07-26T12:02:17.246Z,86944
2018-07-26T12:03:17.257Z,82496
2018-07-26T12:04:17.265Z,79936
2018-07-26T12:05:17.023Z,77056
2018-07-26T12:06:17.022Z,75136
2018-07-26T12:07:17.296Z,76352
2018-07-26T12:08:16.828Z,78112
2018-07-26T12:09:17.065Z,79488
2018-07-26T12:10:16.801Z,81952
2018-07-26T12:11:17.072Z,80896
2018-07-26T12:12:17.091Z,78304
2018-07-26T12:13:17.043Z,78080
2018-07-26T12:14:17.482Z,76704
2018-07-26T12:15:17.407Z,74624
2018-07-26T12:16:17.138Z,75584
2018-07-26T12:17:17.146Z,78112
2018-07-26T12:18:16.911Z,80000
2018-07-26T12:19:17.179Z,80064
2018-07-26T12:20:17.204Z,80384
2018-07-26T12:21:17.194Z,78592
2018-07-26T12:22:16.948Z,76704
2018-07-26T12:23:17.073Z,78464
2018-07-26T12:24:16.967Z,82464
2018-07-26T12:25:17.268Z,87136
2018-07-26T12:26:17.250Z,92128
2018-07-26T12:27:17.469Z,95776
2018-07-26T12:28:17.020Z,97664
2018-07-26T12:29:17.295Z,99712
2018-07-26T12:30:17.047Z,97984
2018-07-26T12:31:17.380Z,94368
2018-07-26T12:32:17.597Z,88032
2018-07-26T12:33:17.375Z,82016
2018-07-26T12:34:17.355Z,78144
2018-07-26T12:35:17.644Z,78112
2018-07-26T12:36:17.378Z,83040
2018-07-26T12:37:17.144Z,87296
2018-07-26T12:38:17.696Z,91360
2018-07-26T12:39:17.410Z,93152
2018-07-26T12:40:17.167Z,93024
2018-07-26T12:41:17.310Z,91520
2018-07-26T12:42:17.449Z,91008
2018-07-26T12:43:17.200Z,90016
2018-07-26T12:44:16.943Z,89024
2018-07-26T12:45:17.497Z,86400
2018-07-26T12:46:17.242Z,81248
2018-07-26T12:47:17.244Z,73632
2018-07-26T12:48:17.536Z,67712
2018-07-26T12:49:17.534Z,63296
2018-07-26T12:50:17.281Z,63456
2018-07-26T12:51:17.572Z,65984
2018-07-26T12:52:17.832Z,75424
2018-07-26T12:53:17.947Z,85024
2018-07-26T12:54:17.588Z,90720
2018-07-26T12:55:17.124Z,94848
2018-07-26T12:56:17.357Z,97120
2018-07-26T12:57:17.374Z,91392
2018-07-26T12:58:17.650Z,82400
2018-07-26T12:59:17.656Z,75584
2018-07-26T13:00:17.933Z,70144
2018-07-26T13:01:17.692Z,66976
2018-07-26T13:02:17.425Z,66752
2018-07-26T13:03:17.443Z,69696
2018-07-26T13:04:17.719Z,70720
2018-07-26T13:05:17.470Z,70144
2018-07-26T13:06:17.742Z,69888
2018-07-26T13:07:18.286Z,69696
2018-07-26T13:08:17.764Z,70016
2018-07-26T13:09:17.783Z,74112
2018-07-26T13:10:17.795Z,77888
2018-07-26T13:11:17.800Z,80672
2018-07-26T13:12:17.882Z,84896
2018-07-26T13:13:17.829Z,88864
2018-07-26T13:14:17.588Z,89152
2018-07-26T13:15:17.581Z,87072
2018-07-26T13:16:18.134Z,82112
2018-07-26T13:17:17.881Z,79296
2018-07-26T13:18:17.630Z,73760
2018-07-26T13:19:17.911Z,71456
2018-07-26T13:20:17.943Z,73696
2018-07-26T13:21:17.659Z,79968
2018-07-26T13:22:17.676Z,87360
2018-07-26T13:23:18.216Z,91776
2018-07-26T13:24:17.979Z,93600
2018-07-26T13:25:17.977Z,93280
2018-07-26T13:26:17.996Z,94912
2018-07-26T13:27:17.895Z,94080
2018-07-26T13:28:18.005Z,90368
2018-07-26T13:29:17.760Z,87296
2018-07-26T13:30:18.040Z,83552
2018-07-26T13:31:18.310Z,80096
2018-07-26T13:32:17.531Z,77376